Štip Airstrip

LW73 · Shtip, Macedonia del Norte

METAR pasados LW73 · Štip Airstrip

A continuación puedes ver los METAR de los últimos días. Selecciona un año para ver los METAR más antiguos, desde el año 2007 en adelante.

13 de junio de 2024

Hora Código Tiempo Temp. Visibilidad Cielo nuboso Viento METAR/SPECI
08:20
V
25 °C 10 km+ - 240° 240° 3 kt METAR LWSK 130620Z 24003KT 200V280 CAVOK 25/16 Q1015 NOSIG
07:50
V
25 °C 10 km+ - Var Var 2 kt METAR LWSK 130550Z VRB02KT CAVOK 25/16 Q1014 NOSIG
07:20
V
23 °C 10 km+ - 350° 350° 4 kt METAR LWSK 130520Z 35004KT 300V010 CAVOK 23/16 Q1014 NOSIG
06:50
V
21 °C 10 km+ - Var Var 1 kt METAR LWSK 130450Z VRB01KT CAVOK 21/16 Q1014 NOSIG
06:20
V
19 °C 10 km+ - 360° 360° 0 kt METAR LWSK 130420Z 00000KT CAVOK 19/15 Q1014 NOSIG
05:50
V
18 °C 10 km+ - Var Var 2 kt METAR LWSK 130350Z VRB02KT CAVOK 18/15 Q1014 NOSIG
05:20
V
17 °C 10 km+ - Var Var 2 kt METAR LWSK 130320Z VRB02KT CAVOK 17/14 Q1014 NOSIG
04:50
V
17 °C 10 km+ - Var Var 2 kt METAR LWSK 130250Z VRB02KT CAVOK 17/15 Q1014 NOSIG
03:50
V
18 °C 10 km+ - Var Var 2 kt METAR LWSK 130150Z VRB02KT CAVOK 18/15 Q1013 NOSIG
02:50
V
20 °C 10 km+ - 160° 160° 3 kt METAR LWSK 130050Z 16003KT 070V200 CAVOK 20/14 Q1013 NOSIG
01:50
V
22 °C 10 km+ - 080° 080° 4 kt METAR LWSK 122350Z 08004KT 010V120 CAVOK 22/15 Q1013 NOSIG
01:20
V
22 °C 10 km+ - 030° 030° 7 kt METAR LWSK 122320Z 03007KT CAVOK 22/14 Q1013 NOSIG
00:20
V
24 °C 10 km+ - 020° 020° 9 kt METAR LWSK 122220Z 02009KT CAVOK 24/14 Q1013 NOSIG

12 de junio de 2024

Hora Código Tiempo Temp. Visibilidad Cielo nuboso Viento METAR/SPECI
23:50
V
24 °C 10 km+ - 030° 030° 9 kt METAR LWSK 122150Z 03009KT CAVOK 24/15 Q1013 NOSIG
23:20
V
25 °C 10 km+ - 030° 030° 8 kt METAR LWSK 122120Z 03008KT CAVOK 25/14 Q1013 NOSIG
22:20
V
26 °C 10 km+ - 030° 030° 9 kt METAR LWSK 122020Z 03009KT CAVOK 26/13 Q1012 NOSIG
21:50
V
26 °C 10 km+ - 030° 030° 6 kt METAR LWSK 121950Z 03006KT CAVOK 26/14 Q1012 NOSIG
21:20
V
27 °C 10 km+ - 020° 020° 4 kt METAR LWSK 121920Z 02004KT 300V050 CAVOK 27/14 Q1011 NOSIG
20:50
V
28 °C 10 km+ - 020° 020° 7 kt METAR LWSK 121850Z 02007KT 350V050 CAVOK 28/15 Q1011 NOSIG
20:20
V
29 °C 10 km+ - 030° 030° 7 kt METAR LWSK 121820Z 03007KT CAVOK 29/16 Q1010 NOSIG
19:50
V
31 °C 10 km+ - 030° 030° 7 kt METAR LWSK 121750Z 03007KT CAVOK 31/16 Q1009 NOSIG
19:20
V
32 °C 10 km+ - 020° 020° 8 kt METAR LWSK 121720Z 02008KT CAVOK 32/17 Q1009 NOSIG
18:50
V
34 °C 10 km+ - 020° 020° 9 kt METAR LWSK 121650Z 02009KT CAVOK 34/17 Q1009 NOSIG
18:20
V
35 °C 10 km+ - 280° 280° 4 kt METAR LWSK 121620Z 28004KT 250V320 CAVOK 35/17 Q1009 NOSIG
17:50
V
36 °C 10 km+ - 290° 290° 4 kt METAR LWSK 121550Z 29004KT 240V350 CAVOK 36/17 Q1008 NOSIG
17:20
V
37 °C 10 km+ - 290° 290° 4 kt METAR LWSK 121520Z 29004KT 210V350 CAVOK 37/17 Q1008 NOSIG
16:50
V
37 °C 10 km+ - Var Var 3 kt METAR LWSK 121450Z VRB03KT CAVOK 37/17 Q1008 NOSIG
16:20
V
37 °C 10 km+ - 010° 010° 5 kt METAR LWSK 121420Z 01005KT 290V040 CAVOK 37/16 Q1008 NOSIG
15:50
V
37 °C 10 km+ - 360° 360° 5 kt METAR LWSK 121350Z 36005KT 310V030 CAVOK 37/15 Q1009 NOSIG
15:20
V
36 °C 10 km+ - Var Var 5 kt METAR LWSK 121320Z VRB05KT CAVOK 36/16 Q1009 NOSIG
14:50
V
36 °C 10 km+ - Var Var 3 kt METAR LWSK 121250Z VRB03KT CAVOK 36/15 Q1009 NOSIG
14:20
V
36 °C 10 km+ - 080° 080° 6 kt METAR LWSK 121220Z 08006KT 360V120 CAVOK 36/15 Q1009 NOSIG
13:50
V
35 °C 10 km+ - Var Var 4 kt METAR LWSK 121150Z VRB04KT CAVOK 35/16 Q1009 NOSIG
13:20
V
35 °C 10 km+ - Var Var 2 kt METAR LWSK 121120Z VRB02KT CAVOK 35/16 Q1010 NOSIG
12:50
V
34 °C 10 km+ - Var Var 4 kt METAR LWSK 121050Z VRB04KT CAVOK 34/16 Q1010 NOSIG
12:20
V
33 °C 10 km+ - Var Var 3 kt METAR LWSK 121020Z VRB03KT CAVOK 33/15 Q1011 NOSIG
11:50
V
32 °C 10 km+ - Var Var 4 kt METAR LWSK 120950Z VRB04KT CAVOK 32/15 Q1011 NOSIG
11:20
V
32 °C 10 km+ - Var Var 4 kt METAR LWSK 120920Z VRB04KT CAVOK 32/14 Q1011 NOSIG
10:50
V
30 °C 10 km+ - 120° 120° 3 kt METAR LWSK 120850Z 12003KT 030V200 CAVOK 30/15 Q1012 NOSIG
10:20
V
29 °C 10 km+ - Var Var 2 kt METAR LWSK 120820Z VRB02KT CAVOK 29/15 Q1012 NOSIG
09:50
V
27 °C 10 km+ - Var Var 2 kt METAR LWSK 120750Z VRB02KT CAVOK 27/15 Q1013 NOSIG
09:20
V
26 °C 10 km+ - Var Var 2 kt METAR LWSK 120720Z VRB02KT CAVOK 26/15 Q1013 NOSIG
08:50
V
26 °C 10 km+ - Var Var 1 kt METAR LWSK 120650Z VRB01KT CAVOK 26/15 Q1013 NOSIG
08:20
V
25 °C 10 km+ - Var Var 2 kt METAR LWSK 120620Z VRB02KT CAVOK 25/15 Q1014 NOSIG
07:50
V
23 °C 10 km+ - 310° 310° 3 kt METAR LWSK 120550Z 31003KT 270V360 CAVOK 23/15 Q1014 NOSIG
07:20
V
22 °C 10 km+ - Var Var 2 kt METAR LWSK 120520Z VRB02KT CAVOK 22/15 Q1013 NOSIG
06:50
V
19 °C 10 km+ - Var Var 2 kt METAR LWSK 120450Z VRB02KT CAVOK 19/15 Q1014 NOSIG
06:20
V
18 °C 10 km+ - Var Var 1 kt METAR LWSK 120420Z VRB01KT CAVOK 18/14 Q1013 NOSIG
05:50
V
17 °C 10 km+ - Var Var 1 kt METAR LWSK 120350Z VRB01KT CAVOK 17/14 Q1013 NOSIG
05:20
V
16 °C 10 km+ - Var Var 1 kt METAR LWSK 120320Z VRB01KT CAVOK 16/14 Q1013 NOSIG
04:50
V
17 °C 10 km+ - 080° 080° 3 kt METAR LWSK 120250Z 08003KT 040V110 CAVOK 17/13 Q1013 NOSIG
04:20
V
16 °C 10 km+ - Var Var 1 kt METAR LWSK 120220Z VRB01KT CAVOK 16/14 Q1013 NOSIG
03:50
V
16 °C 10 km+ - Var Var 2 kt METAR LWSK 120150Z VRB02KT CAVOK 16/14 Q1013 NOSIG
03:20
V
17 °C 10 km+ - Var Var 1 kt METAR LWSK 120120Z VRB01KT CAVOK 17/14 Q1013 NOSIG
02:50
V
17 °C 10 km+ - Var Var 2 kt METAR LWSK 120050Z VRB02KT CAVOK 17/14 Q1013 NOSIG
02:20
V
18 °C 10 km+ - 160° 160° 3 kt METAR LWSK 120020Z 16003KT 130V190 CAVOK 18/14 Q1013 NOSIG
01:50
V
18 °C 10 km+ - Var Var 2 kt METAR LWSK 112350Z VRB02KT CAVOK 18/14 Q1012 NOSIG
01:20
V
19 °C 10 km+ - 110° 110° 2 kt METAR LWSK 112320Z 11002KT CAVOK 19/14 Q1012 NOSIG
00:50
V
20 °C 10 km+ - Var Var 2 kt METAR LWSK 112250Z VRB02KT CAVOK 20/14 Q1012 NOSIG
00:20
V
21 °C 10 km+ - Var Var 1 kt METAR LWSK 112220Z VRB01KT CAVOK 21/14 Q1012 NOSIG

11 de junio de 2024

Hora Código Tiempo Temp. Visibilidad Cielo nuboso Viento METAR/SPECI
23:50
V
21 °C 10 km+ - 160° 160° 4 kt METAR LWSK 112150Z 16004KT 130V190 CAVOK 21/14 Q1012 NOSIG
23:20
V
22 °C 10 km+ - 120° 120° 4 kt METAR LWSK 112120Z 12004KT 060V150 CAVOK 22/15 Q1012 NOSIG
22:50
V
23 °C 10 km+ - Var Var 2 kt METAR LWSK 112050Z VRB02KT CAVOK 23/14 Q1012 NOSIG
22:20
V
24 °C 10 km+ - 360° 360° 6 kt METAR LWSK 112020Z 36006KT CAVOK 24/14 Q1011 NOSIG
21:50
V
25 °C 10 km+ - 350° 350° 6 kt METAR LWSK 111950Z 35006KT 290V040 CAVOK 25/15 Q1011 NOSIG
21:20
V
26 °C 10 km+ - 030° 030° 9 kt METAR LWSK 111920Z 03009KT CAVOK 26/15 Q1011 NOSIG
20:50
V
27 °C 10 km+ - 040° 040° 6 kt METAR LWSK 111850Z 04006KT 010V100 CAVOK 27/15 Q1010 NOSIG
20:20
V
27 °C 10 km+ - 020° 020° 7 kt METAR LWSK 111820Z 02007KT 340V040 CAVOK 27/15 Q1010 NOSIG
19:50
V
30 °C 10 km+ - 180° 180° 3 kt METAR LWSK 111750Z 18003KT 070V220 CAVOK 30/14 Q1010 NOSIG
19:20
V
31 °C 10 km+ - 340° 340° 3 kt METAR LWSK 111720Z 34003KT 260V020 CAVOK 31/15 Q1009 NOSIG
18:50
V
32 °C 10 km+ - 260° 260° 5 kt METAR LWSK 111650Z 26005KT 200V320 CAVOK 32/13 Q1009 NOSIG
18:20
V
34 °C 10 km+ - 270° 270° 4 kt METAR LWSK 111620Z 27004KT 220V320 9999 FEW090 34/14 Q1009 NOSIG
17:50
V
35 °C 10 km+ - Var Var 2 kt METAR LWSK 111550Z VRB02KT 9999 FEW090 35/15 Q1009 NOSIG
17:20
V
35 °C 10 km+ - 280° 280° 5 kt METAR LWSK 111520Z 28005KT 240V350 9999 FEW090 35/15 Q1009 NOSIG
16:50
V
33 °C 10 km+ - 280° 280° 7 kt METAR LWSK 111450Z 28007KT 220V340 CAVOK 33/13 Q1010 NOSIG
16:20
V
34 °C 10 km+ - Var Var 2 kt METAR LWSK 111420Z VRB02KT CAVOK 34/16 Q1009 NOSIG
15:20
V
36 °C 10 km+ - 290° 290° 5 kt METAR LWSK 111320Z 29005KT 210V350 CAVOK 36/16 Q1009 NOSIG
14:20
V
36 °C 10 km+ - Var Var 3 kt METAR LWSK 111220Z VRB03KT CAVOK 36/13 Q1009 NOSIG
13:50
V
35 °C 10 km+ - 190° 190° 4 kt METAR LWSK 111150Z 19004KT 110V270 CAVOK 35/14 Q1009 NOSIG
13:20
V
34 °C 10 km+ - Var Var 3 kt METAR LWSK 111120Z VRB03KT CAVOK 34/15 Q1009 NOSIG
12:50
V
33 °C 10 km+ - Var Var 4 kt METAR LWSK 111050Z VRB04KT CAVOK 33/15 Q1010 NOSIG
12:20
V
33 °C 10 km+ - Var Var 2 kt METAR LWSK 111020Z VRB02KT CAVOK 33/15 Q1010 NOSIG
11:50
V
32 °C 10 km+ - Var Var 2 kt METAR LWSK 110950Z VRB02KT CAVOK 32/15 Q1010 NOSIG
11:20
V
32 °C 10 km+ - Var Var 2 kt METAR LWSK 110920Z VRB02KT CAVOK 32/13 Q1010 NOSIG
10:50
V
30 °C 10 km+ - Var Var 2 kt METAR LWSK 110850Z VRB02KT CAVOK 30/17 Q1010 NOSIG
10:20
V
29 °C 10 km+ - Var Var 3 kt METAR LWSK 110820Z VRB03KT CAVOK 29/16 Q1010 NOSIG
09:50
V
28 °C 10 km+ - Var Var 3 kt METAR LWSK 110750Z VRB03KT CAVOK 28/17 Q1010 NOSIG
09:20
V
27 °C 10 km+ - Var Var 2 kt METAR LWSK 110720Z VRB02KT CAVOK 27/16 Q1011 NOSIG
08:50
V
26 °C 10 km+ - Var Var 2 kt METAR LWSK 110650Z VRB02KT CAVOK 26/15 Q1011 NOSIG
07:50
V
22 °C 10 km+ - Var Var 1 kt METAR LWSK 110550Z VRB01KT CAVOK 22/15 Q1011 NOSIG
Cambiar esta información